createdAt,value
2022-10-26T00:01:06.200Z,22.87
2022-10-26T00:03:35.862Z,24.07
2022-10-26T00:06:08.469Z,26.33
2022-10-26T00:08:37.202Z,23.30
2022-10-26T00:11:07.900Z,21.93
2022-10-26T00:13:36.973Z,23.20
2022-10-26T00:16:10.240Z,22.53
2022-10-26T00:18:38.580Z,27.33
2022-10-26T00:21:07.962Z,24.60
2022-10-26T00:23:36.465Z,20.93
2022-10-26T00:26:06.700Z,26.20
2022-10-26T00:28:35.210Z,23.97
2022-10-26T00:31:04.075Z,22.13
2022-10-26T00:33:32.792Z,22.87
2022-10-26T00:36:01.443Z,20.37
2022-10-26T00:38:29.706Z,18.30
2022-10-26T00:43:40.733Z,19.80
2022-10-26T00:46:13.694Z,24.77
2022-10-26T00:48:45.627Z,20.37
2022-10-26T00:51:18.649Z,17.23
2022-10-26T00:53:47.394Z,19.77
2022-10-26T00:56:15.799Z,23.60
2022-10-26T00:58:46.380Z,22.27
2022-10-26T01:01:15.060Z,24.00
2022-10-26T01:03:44.222Z,19.13
2022-10-26T01:06:13.891Z,21.27
2022-10-26T01:08:44.462Z,17.00
2022-10-26T01:11:13.668Z,21.07
2022-10-26T01:13:46.271Z,17.47
2022-10-26T01:16:31.851Z,22.17
2022-10-26T01:19:09.985Z,16.97
2022-10-26T01:21:47.005Z,17.27
2022-10-26T01:24:54.910Z,19.27
2022-10-26T01:27:30.064Z,19.80
2022-10-26T01:30:29.084Z,21.53
2022-10-26T01:33:30.995Z,19.50
2022-10-26T01:36:09.289Z,19.83
2022-10-26T01:38:52.890Z,18.57
2022-10-26T01:41:27.208Z,19.67
2022-10-26T01:43:58.350Z,16.73
2022-10-26T01:46:31.798Z,19.63
2022-10-26T01:49:05.713Z,17.27
2022-10-26T01:51:34.191Z,21.60
2022-10-26T01:54:02.450Z,17.47
2022-10-26T01:56:32.684Z,17.80
2022-10-26T01:59:20.603Z,19.27
2022-10-26T02:02:26.803Z,15.73
2022-10-26T02:05:09.203Z,17.77
2022-10-26T02:07:46.720Z,17.53
2022-10-26T02:10:28.467Z,14.83
2022-10-26T02:13:04.411Z,18.90
2022-10-26T02:15:40.921Z,22.57
2022-10-26T02:18:23.984Z,19.30
2022-10-26T02:20:56.299Z,19.03
2022-10-26T02:23:27.522Z,17.83
2022-10-26T02:25:59.941Z,16.93
2022-10-26T02:28:34.179Z,19.70
2022-10-26T02:31:04.204Z,17.93
2022-10-26T02:33:38.265Z,16.47
2022-10-26T02:36:10.713Z,19.23
2022-10-26T02:38:41.007Z,16.47
2022-10-26T02:41:09.955Z,16.27
2022-10-26T02:43:44.720Z,16.20
2022-10-26T02:46:17.354Z,12.77
2022-10-26T02:48:47.140Z,17.30
2022-10-26T02:51:19.738Z,19.00
2022-10-26T02:53:51.251Z,17.23
2022-10-26T02:56:30.163Z,17.33
2022-10-26T02:59:04.171Z,21.00
2022-10-26T03:01:33.895Z,22.77
2022-10-26T03:04:03.811Z,18.53
2022-10-26T03:06:32.114Z,16.70
2022-10-26T03:09:00.346Z,17.90
2022-10-26T03:11:28.618Z,19.87
2022-10-26T03:13:56.843Z,24.93
2022-10-26T03:16:25.113Z,15.37
2022-10-26T03:18:53.336Z,15.67
2022-10-26T03:21:22.955Z,14.50
2022-10-26T03:23:51.700Z,15.57
2022-10-26T03:26:19.924Z,19.83
2022-10-26T03:28:48.300Z,18.67
2022-10-26T03:31:16.603Z,20.40
2022-10-26T03:33:44.808Z,21.30
2022-10-26T03:36:13.134Z,15.30
2022-10-26T03:38:42.786Z,15.17
2022-10-26T03:41:11.055Z,20.13
2022-10-26T03:43:39.275Z,18.93
2022-10-26T03:46:07.606Z,17.47
2022-10-26T03:48:35.839Z,16.30
2022-10-26T03:51:04.112Z,19.73
2022-10-26T03:53:32.558Z,21.63
2022-10-26T03:56:02.182Z,19.80
2022-10-26T03:58:30.715Z,19.43
2022-10-26T04:00:58.954Z,21.17
2022-10-26T04:03:27.191Z,23.33
2022-10-26T04:05:55.551Z,24.67
2022-10-26T04:08:23.768Z,20.83
2022-10-26T04:10:51.988Z,24.97
2022-10-26T04:13:26.131Z,24.03
2022-10-26T04:15:54.394Z,25.00
2022-10-26T04:18:22.658Z,24.67
2022-10-26T04:20:50.906Z,28.17
2022-10-26T04:23:20.465Z,25.13
2022-10-26T04:25:48.697Z,20.23
2022-10-26T04:28:16.885Z,23.10
2022-10-26T04:30:46.472Z,26.90
2022-10-26T04:33:14.690Z,23.67
2022-10-26T04:35:43.005Z,23.07
2022-10-26T04:38:11.735Z,37.03
2022-10-26T04:40:39.926Z,35.17
2022-10-26T04:43:08.147Z,31.60
2022-10-26T04:45:36.442Z,22.37
2022-10-26T04:48:08.288Z,29.77
2022-10-26T04:50:38.999Z,26.93
2022-10-26T04:53:08.776Z,28.67
2022-10-26T04:55:37.314Z,25.27
2022-10-26T04:58:07.313Z,23.23
2022-10-26T05:00:36.407Z,29.87
2022-10-26T05:03:08.187Z,23.97
2022-10-26T05:05:39.256Z,24.37
2022-10-26T05:08:07.685Z,29.77
2022-10-26T05:10:36.224Z,26.37
2022-10-26T05:13:04.824Z,24.57
2022-10-26T05:15:33.353Z,29.73
2022-10-26T05:18:02.959Z,28.40
2022-10-26T05:20:34.151Z,26.53
2022-10-26T05:23:04.148Z,31.73
2022-10-26T05:25:36.232Z,33.87
2022-10-26T05:28:08.092Z,25.00
2022-10-26T05:30:36.393Z,27.03
2022-10-26T05:33:04.783Z,21.17
2022-10-26T05:35:34.951Z,31.30
2022-10-26T05:38:09.056Z,25.90
2022-10-26T05:40:37.536Z,29.63
2022-10-26T05:43:05.971Z,31.33
2022-10-26T05:45:34.231Z,27.97
2022-10-26T05:48:02.957Z,21.70
2022-10-26T05:50:33.241Z,29.30
2022-10-26T05:53:01.647Z,22.07
2022-10-26T05:55:30.770Z,21.23
2022-10-26T05:57:59.698Z,19.47
2022-10-26T06:00:30.007Z,13.40
2022-10-26T06:03:17.307Z,13.17
2022-10-26T06:05:54.054Z,12.67
2022-10-26T06:08:24.095Z,13.83
2022-10-26T06:10:53.927Z,12.50
2022-10-26T06:13:22.825Z,31.20
2022-10-26T06:16:05.169Z,32.17
2022-10-26T06:18:44.403Z,28.53
2022-10-26T06:21:28.888Z,27.20
2022-10-26T06:24:06.128Z,20.77
2022-10-26T06:26:42.178Z,14.85
2022-10-26T06:29:39.538Z,18.20
2022-10-26T06:32:09.618Z,13.60
2022-10-26T06:34:44.674Z,17.00
2022-10-26T06:37:15.270Z,15.40
2022-10-26T06:39:49.983Z,10.87
2022-10-26T06:42:21.586Z,14.43
2022-10-26T06:44:50.457Z,13.80
2022-10-26T06:47:27.132Z,11.13
2022-10-26T06:50:10.806Z,12.60
2022-10-26T06:52:45.595Z,10.43
2022-10-26T06:55:16.440Z,16.00
2022-10-26T06:57:45.881Z,14.60
2022-10-26T07:00:20.807Z,13.30
2022-10-26T07:02:49.738Z,18.13
2022-10-26T07:05:18.755Z,15.77
2022-10-26T07:07:49.379Z,13.93
2022-10-26T07:10:18.027Z,13.23
2022-10-26T07:12:46.414Z,13.93
2022-10-26T07:15:16.413Z,12.83
2022-10-26T07:17:45.988Z,12.90
2022-10-26T07:20:15.121Z,11.40
2022-10-26T07:22:43.946Z,13.63
2022-10-26T07:25:13.870Z,13.70
2022-10-26T07:27:42.124Z,10.30
2022-10-26T07:30:11.543Z,15.63
2022-10-26T07:32:39.916Z,11.10
2022-10-26T07:35:08.888Z,15.85
2022-10-26T07:37:37.674Z,14.93
2022-10-26T07:40:07.594Z,18.75
2022-10-26T07:42:37.509Z,15.70
2022-10-26T07:45:06.870Z,16.65
2022-10-26T07:47:35.136Z,15.30
2022-10-26T07:50:03.518Z,9.35
2022-10-26T07:52:31.766Z,8.90
2022-10-26T07:54:59.980Z,12.57
2022-10-26T07:57:28.267Z,9.35
2022-10-26T07:59:58.445Z,13.40
2022-10-26T08:02:26.733Z,9.25
2022-10-26T08:04:54.960Z,10.80
2022-10-26T08:07:23.235Z,9.63
2022-10-26T08:09:51.471Z,10.40
2022-10-26T08:12:19.887Z,7.55
2022-10-26T08:14:48.176Z,7.30
2022-10-26T08:17:17.809Z,6.90
2022-10-26T08:19:48.544Z,9.43
2022-10-26T08:22:16.795Z,6.88
2022-10-26T08:24:46.872Z,10.63
2022-10-26T08:27:15.203Z,5.70
2022-10-26T08:29:43.976Z,13.77
2022-10-26T08:32:12.271Z,6.22
2022-10-26T08:34:41.997Z,9.32
2022-10-26T08:37:10.235Z,6.05
2022-10-26T08:39:38.461Z,8.18
2022-10-26T08:42:13.638Z,12.55
2022-10-26T08:44:46.588Z,5.53
2022-10-26T08:47:19.672Z,26.95
2022-10-26T08:49:55.466Z,8.43
2022-10-26T08:52:30.646Z,9.02
2022-10-26T08:55:03.704Z,8.90
2022-10-26T08:57:38.310Z,6.15
2022-10-26T09:00:08.682Z,5.45
2022-10-26T09:02:36.957Z,6.93
2022-10-26T09:05:16.412Z,7.70
2022-10-26T09:07:57.233Z,6.47
2022-10-26T09:10:41.051Z,6.03
2022-10-26T09:13:20.561Z,4.45
2022-10-26T09:15:59.147Z,6.78
2022-10-26T09:18:41.847Z,6.18
2022-10-26T09:21:26.075Z,7.45
2022-10-26T09:24:02.441Z,4.25
2022-10-26T09:26:44.349Z,6.57
2022-10-26T09:29:15.433Z,7.57
2022-10-26T09:31:46.285Z,5.43
2022-10-26T09:34:27.343Z,8.75
2022-10-26T09:37:15.784Z,5.20
2022-10-26T09:39:53.014Z,6.75
2022-10-26T09:42:28.435Z,4.90
2022-10-26T09:45:01.714Z,5.05
2022-10-26T09:47:37.203Z,4.45
2022-10-26T09:50:23.638Z,6.97
2022-10-26T09:52:53.309Z,7.05
2022-10-26T09:55:23.227Z,3.40
2022-10-26T09:57:55.235Z,5.32
2022-10-26T10:00:26.249Z,6.65
2022-10-26T10:02:56.229Z,6.40
2022-10-26T10:08:25.634Z,5.63
2022-10-26T10:11:03.425Z,5.38
2022-10-26T10:13:33.446Z,5.65
2022-10-26T10:16:07.152Z,6.13
2022-10-26T10:18:36.382Z,5.97
2022-10-26T10:21:06.046Z,5.65
2022-10-26T10:23:37.110Z,6.80
2022-10-26T10:26:08.644Z,6.95
2022-10-26T10:28:37.500Z,3.53
2022-10-26T10:31:07.715Z,2.78
2022-10-26T10:33:39.141Z,4.18
2022-10-26T10:36:11.686Z,4.30
2022-10-26T10:38:44.247Z,8.90
2022-10-26T10:41:22.908Z,6.20
2022-10-26T10:43:55.135Z,3.08
2022-10-26T10:46:26.797Z,4.88
2022-10-26T10:49:05.189Z,7.68
2022-10-26T10:51:39.873Z,6.97
2022-10-26T10:54:24.327Z,3.92
2022-10-26T10:56:55.997Z,3.25
2022-10-26T10:59:50.148Z,4.43
2022-10-26T11:02:46.350Z,5.90
2022-10-26T11:05:27.477Z,6.30
2022-10-26T11:08:03.222Z,5.43
2022-10-26T11:10:36.528Z,4.13
2022-10-26T11:13:11.867Z,3.95
2022-10-26T11:15:44.538Z,7.78
2022-10-26T11:18:18.011Z,3.92
2022-10-26T11:20:52.567Z,5.57
2022-10-26T11:23:24.984Z,3.30
2022-10-26T11:25:59.268Z,2.67
2022-10-26T11:28:36.693Z,3.45
2022-10-26T11:31:09.056Z,3.63
2022-10-26T11:33:44.657Z,5.18
2022-10-26T11:36:19.720Z,6.07
2022-10-26T11:38:57.479Z,3.58
2022-10-26T11:41:34.386Z,6.65
2022-10-26T11:44:11.595Z,7.30
2022-10-26T11:46:44.269Z,3.60
2022-10-26T11:49:18.342Z,5.22
2022-10-26T11:51:51.975Z,4.15
2022-10-26T11:54:25.596Z,4.65
2022-10-26T11:56:58.159Z,5.10
2022-10-26T11:59:30.784Z,4.18
2022-10-26T12:02:06.479Z,5.03
2022-10-26T12:04:38.593Z,5.00
2022-10-26T12:07:14.343Z,5.40
2022-10-26T12:09:45.023Z,4.35
2022-10-26T12:12:21.202Z,4.28
2022-10-26T12:14:57.493Z,4.55
2022-10-26T12:17:30.898Z,4.70
2022-10-26T12:20:07.405Z,7.68
2022-10-26T12:22:39.967Z,5.35
2022-10-26T12:25:23.102Z,5.40
2022-10-26T12:27:55.563Z,5.53
2022-10-26T12:30:30.183Z,8.57
2022-10-26T12:33:00.218Z,8.40
2022-10-26T12:35:41.355Z,6.85
2022-10-26T12:38:50.770Z,4.45
2022-10-26T12:41:26.795Z,5.25
2022-10-26T12:44:26.227Z,7.15
2022-10-26T12:46:54.467Z,6.47
2022-10-26T12:50:01.174Z,6.18
2022-10-26T12:52:49.525Z,5.72
2022-10-26T12:55:43.363Z,4.80
2022-10-26T12:58:44.230Z,4.38
2022-10-26T13:01:37.669Z,4.22
2022-10-26T13:04:29.496Z,2.85
2022-10-26T13:07:24.309Z,4.57
2022-10-26T13:09:59.669Z,5.25
2022-10-26T13:12:29.184Z,3.97
2022-10-26T13:15:01.765Z,4.85
2022-10-26T13:20:04.976Z,5.07
2022-10-26T13:22:33.875Z,3.03
2022-10-26T13:25:04.895Z,4.07
2022-10-26T13:27:44.187Z,4.30
2022-10-26T13:30:38.658Z,5.07
2022-10-26T13:33:30.083Z,4.63
2022-10-26T13:36:01.804Z,6.93
2022-10-26T13:38:35.139Z,3.65
2022-10-26T13:41:16.470Z,5.28
2022-10-26T13:43:45.196Z,4.07
2022-10-26T13:46:33.397Z,3.10
2022-10-26T13:49:10.052Z,6.53
2022-10-26T13:51:44.274Z,6.38
2022-10-26T13:54:22.998Z,6.80
2022-10-26T13:57:02.697Z,4.43
2022-10-26T13:59:38.770Z,5.50
2022-10-26T14:02:08.372Z,8.82
2022-10-26T14:04:38.047Z,5.95
2022-10-26T14:07:07.131Z,8.95
2022-10-26T14:09:35.436Z,4.10
2022-10-26T14:12:04.100Z,6.75
2022-10-26T14:14:36.187Z,4.22
2022-10-26T14:17:05.548Z,7.15
2022-10-26T14:19:37.765Z,3.40
2022-10-26T14:22:06.551Z,4.70
2022-10-26T14:24:50.251Z,4.78
2022-10-26T14:27:19.430Z,3.25
2022-10-26T14:30:03.607Z,4.70
2022-10-26T14:32:37.081Z,9.70
2022-10-26T14:35:07.258Z,3.78
2022-10-26T14:37:44.264Z,4.88
2022-10-26T14:40:18.398Z,6.45
2022-10-26T14:42:50.655Z,4.45
2022-10-26T14:45:47.691Z,11.27
2022-10-26T14:48:23.961Z,7.38
2022-10-26T14:51:10.690Z,8.35
2022-10-26T14:53:43.521Z,5.50
2022-10-26T14:56:25.955Z,10.98
2022-10-26T14:58:55.543Z,15.00
2022-10-26T15:01:36.278Z,12.23
2022-10-26T15:04:07.218Z,10.38
2022-10-26T15:06:47.473Z,11.05
2022-10-26T15:09:40.712Z,6.57
2022-10-26T15:12:19.415Z,5.93
2022-10-26T15:14:48.049Z,8.60
2022-10-26T15:17:23.395Z,8.05
2022-10-26T15:19:53.895Z,8.38
2022-10-26T15:22:31.732Z,8.00
2022-10-26T15:25:03.575Z,7.72
2022-10-26T15:27:31.916Z,9.32
2022-10-26T15:30:21.328Z,10.73
2022-10-26T15:32:50.253Z,12.32
2022-10-26T15:35:28.575Z,10.40
2022-10-26T15:37:59.368Z,11.93
2022-10-26T15:40:29.183Z,12.68
2022-10-26T15:43:01.121Z,9.18
2022-10-26T15:45:31.846Z,17.90
2022-10-26T15:48:11.883Z,11.25
2022-10-26T15:50:41.323Z,12.68
2022-10-26T15:53:18.350Z,10.80
2022-10-26T15:55:46.663Z,12.80
2022-10-26T15:58:15.829Z,13.82
2022-10-26T16:00:44.331Z,12.32
2022-10-26T16:03:18.184Z,20.08
2022-10-26T16:05:46.553Z,16.75
2022-10-26T16:08:19.152Z,13.18
2022-10-26T16:10:48.659Z,17.38
2022-10-26T16:13:17.286Z,18.88
2022-10-26T16:15:46.205Z,18.63
2022-10-26T16:18:14.594Z,15.37
2022-10-26T16:20:46.001Z,14.48
2022-10-26T16:23:15.793Z,20.35
2022-10-26T16:25:46.293Z,19.60
2022-10-26T16:28:16.386Z,26.13
2022-10-26T16:30:45.174Z,22.37
2022-10-26T16:33:13.499Z,21.30
2022-10-26T16:35:41.780Z,27.87
2022-10-26T16:38:10.051Z,14.93
2022-10-26T16:40:42.680Z,20.33
2022-10-26T16:43:11.595Z,17.67
2022-10-26T16:45:43.179Z,23.60
2022-10-26T16:48:16.111Z,19.77
2022-10-26T16:50:49.156Z,14.17
2022-10-26T16:53:17.514Z,18.77
2022-10-26T16:55:47.279Z,24.57
2022-10-26T16:58:18.490Z,19.13
2022-10-26T17:00:46.732Z,21.00
2022-10-26T17:03:14.962Z,21.97
2022-10-26T17:05:43.200Z,19.37
2022-10-26T17:08:11.401Z,23.90
2022-10-26T17:10:39.631Z,27.03
2022-10-26T17:13:09.263Z,29.93
2022-10-26T17:15:37.496Z,25.73
2022-10-26T17:18:06.021Z,27.80
2022-10-26T17:20:34.347Z,38.70
2022-10-26T17:23:02.574Z,24.40
2022-10-26T17:25:31.096Z,35.10
2022-10-26T17:27:59.595Z,40.57
2022-10-26T17:30:32.857Z,48.07
2022-10-26T17:33:03.208Z,33.40
2022-10-26T17:35:34.818Z,39.00
2022-10-26T17:38:03.584Z,41.87
2022-10-26T17:40:32.565Z,45.40
2022-10-26T17:43:01.187Z,42.70
2022-10-26T17:45:30.822Z,39.33
2022-10-26T17:47:59.096Z,40.70
2022-10-26T17:50:27.445Z,44.27
2022-10-26T17:52:56.565Z,45.33
2022-10-26T17:55:26.527Z,49.07
2022-10-26T17:57:54.765Z,45.63
2022-10-26T18:00:23.310Z,46.10
2022-10-26T18:02:53.105Z,40.67
2022-10-26T18:05:21.433Z,41.60
2022-10-26T18:07:49.836Z,38.17
2022-10-26T18:10:37.905Z,42.53
2022-10-26T18:13:06.660Z,38.90
2022-10-26T18:15:37.035Z,39.57
2022-10-26T18:18:06.939Z,42.97
2022-10-26T18:20:35.315Z,42.43
2022-10-26T18:23:03.601Z,44.03
2022-10-26T18:25:32.771Z,42.40
2022-10-26T18:28:01.357Z,36.87
2022-10-26T18:30:29.761Z,41.72
2022-10-26T18:32:58.029Z,32.13
2022-10-26T18:35:27.783Z,35.20
2022-10-26T18:37:56.002Z,41.70
2022-10-26T18:40:24.241Z,37.50
2022-10-26T18:42:52.513Z,36.43
2022-10-26T18:45:22.590Z,39.50
2022-10-26T18:47:51.050Z,40.80
2022-10-26T18:50:19.542Z,40.10
2022-10-26T18:52:49.154Z,43.90
2022-10-26T18:55:17.802Z,38.73
2022-10-26T18:57:46.055Z,31.73
2022-10-26T19:00:15.596Z,37.90
2022-10-26T19:02:45.560Z,36.07
2022-10-26T19:05:15.788Z,36.77
2022-10-26T19:07:44.122Z,35.97
2022-10-26T19:10:16.693Z,40.60
2022-10-26T19:12:44.906Z,33.97
2022-10-26T19:15:13.177Z,35.43
2022-10-26T19:17:41.418Z,35.97
2022-10-26T19:20:12.939Z,43.33
2022-10-26T19:22:41.215Z,35.87
2022-10-26T19:25:10.652Z,32.43
2022-10-26T19:27:40.299Z,36.28
2022-10-26T19:30:09.601Z,33.27
2022-10-26T19:32:37.855Z,27.73
2022-10-26T19:35:06.750Z,30.90
2022-10-26T19:37:35.023Z,35.00
2022-10-26T19:40:03.249Z,27.33
2022-10-26T19:42:31.477Z,32.67
2022-10-26T19:45:01.109Z,28.47
2022-10-26T19:47:29.389Z,24.10
2022-10-26T19:49:57.609Z,29.10
2022-10-26T19:52:25.916Z,26.30
2022-10-26T19:54:54.653Z,27.87
2022-10-26T19:57:22.889Z,28.43
2022-10-26T19:59:51.098Z,25.97
2022-10-26T20:02:20.747Z,27.13
2022-10-26T20:04:48.994Z,28.33
2022-10-26T20:07:17.533Z,25.47
2022-10-26T20:09:45.762Z,30.10
2022-10-26T20:12:14.509Z,30.53
2022-10-26T20:14:42.759Z,32.00
2022-10-26T20:17:11.021Z,30.33
2022-10-26T20:19:40.714Z,27.83
2022-10-26T20:22:08.961Z,33.80
2022-10-26T20:24:37.185Z,28.80
2022-10-26T20:27:05.509Z,23.63
2022-10-26T20:29:33.747Z,24.93
2022-10-26T20:32:01.962Z,26.57
2022-10-26T20:34:32.782Z,27.03
2022-10-26T20:37:02.442Z,24.33
2022-10-26T20:39:31.176Z,25.60
2022-10-26T20:42:00.100Z,27.60
2022-10-26T20:44:32.143Z,30.37
2022-10-26T20:47:00.806Z,26.83
2022-10-26T20:49:29.406Z,30.00
2022-10-26T20:52:21.430Z,25.67
2022-10-26T20:54:55.327Z,22.97
2022-10-26T20:57:29.582Z,26.80
2022-10-26T21:00:03.858Z,20.73
2022-10-26T21:02:32.762Z,29.20
2022-10-26T21:05:00.999Z,23.13
2022-10-26T21:07:30.620Z,24.57
2022-10-26T21:09:58.877Z,25.97
2022-10-26T21:12:27.107Z,29.40
2022-10-26T21:14:55.294Z,21.00
2022-10-26T21:17:23.545Z,24.80
2022-10-26T21:19:51.766Z,21.30
2022-10-26T21:22:19.983Z,21.23
2022-10-26T21:24:49.617Z,23.13
2022-10-26T21:27:17.831Z,21.33
2022-10-26T21:29:46.032Z,27.93
2022-10-26T21:32:14.262Z,24.07
2022-10-26T21:34:42.500Z,21.40
2022-10-26T21:37:10.729Z,23.60
2022-10-26T21:39:39.014Z,21.87
2022-10-26T21:42:08.712Z,26.63
2022-10-26T21:44:41.435Z,28.70
2022-10-26T21:47:10.653Z,26.80
2022-10-26T21:49:38.943Z,24.13
2022-10-26T21:52:08.118Z,21.87
2022-10-26T21:54:36.403Z,22.33
2022-10-26T21:57:04.670Z,18.73
2022-10-26T21:59:34.298Z,20.07
2022-10-26T22:02:02.708Z,19.10
2022-10-26T22:04:31.028Z,21.27
2022-10-26T22:06:59.275Z,21.93
2022-10-26T22:09:27.536Z,24.77
2022-10-26T22:11:55.743Z,20.23
2022-10-26T22:14:24.112Z,23.27
2022-10-26T22:16:53.734Z,18.73
2022-10-26T22:19:22.003Z,20.27
2022-10-26T22:21:50.209Z,16.50
2022-10-26T22:24:18.570Z,19.63
2022-10-26T22:26:46.807Z,22.13
2022-10-26T22:29:15.025Z,20.47
2022-10-26T22:31:43.241Z,21.67
2022-10-26T22:34:19.183Z,16.80
2022-10-26T22:36:47.411Z,18.50
2022-10-26T22:39:15.649Z,16.80
2022-10-26T22:41:44.302Z,13.87
2022-10-26T22:44:12.565Z,15.03
2022-10-26T22:46:40.824Z,18.17
2022-10-26T22:49:09.075Z,15.73
2022-10-26T22:51:41.067Z,13.63
2022-10-26T22:54:09.280Z,15.20
2022-10-26T22:56:37.589Z,21.67
2022-10-26T22:59:06.447Z,13.37
2022-10-26T23:01:38.352Z,13.17
2022-10-26T23:04:06.885Z,14.83
2022-10-26T23:06:35.481Z,17.30
2022-10-26T23:09:06.261Z,13.17
2022-10-26T23:11:34.866Z,15.27
2022-10-26T23:14:04.633Z,12.97
2022-10-26T23:16:33.090Z,17.17
2022-10-26T23:19:01.359Z,14.53
2022-10-26T23:21:30.289Z,13.90
2022-10-26T23:23:58.911Z,16.27
2022-10-26T23:26:28.611Z,15.97
2022-10-26T23:28:57.106Z,14.02
2022-10-26T23:31:26.883Z,13.97
2022-10-26T23:33:56.606Z,12.00
2022-10-26T23:36:25.334Z,15.80
2022-10-26T23:38:53.686Z,17.87
2022-10-26T23:41:21.906Z,11.07
2022-10-26T23:43:51.549Z,13.60
2022-10-26T23:46:22.822Z,11.73
2022-10-26T23:48:51.098Z,11.70
2022-10-26T23:51:19.347Z,12.87
2022-10-26T23:53:47.590Z,11.97
2022-10-26T23:56:15.843Z,9.53
2022-10-26T23:58:44.124Z,11.47
